createdAt,value
2017-08-02T00:01:31.508Z,94.30
2017-08-02T00:03:57.875Z,94.40
2017-08-02T00:06:24.217Z,94.00
2017-08-02T00:08:50.518Z,91.70
2017-08-02T00:11:16.861Z,90.00
2017-08-02T00:13:43.163Z,89.90
2017-08-02T00:16:09.507Z,88.40
2017-08-02T00:18:35.828Z,89.20
2017-08-02T00:21:02.135Z,89.40
2017-08-02T00:23:28.478Z,90.10
2017-08-02T00:25:54.827Z,90.30
2017-08-02T00:28:21.148Z,87.30
2017-08-02T00:30:47.499Z,87.20
2017-08-02T00:33:13.845Z,88.30
2017-08-02T00:35:40.915Z,88.60
2017-08-02T00:38:07.281Z,88.60
2017-08-02T00:40:33.619Z,88.20
2017-08-02T00:42:59.967Z,88.00
2017-08-02T00:45:26.299Z,89.10
2017-08-02T00:47:52.610Z,90.10
2017-08-02T00:50:18.931Z,88.50
2017-08-02T00:52:45.243Z,83.00
2017-08-02T00:55:12.325Z,84.80
2017-08-02T00:57:38.615Z,84.70
2017-08-02T01:00:04.924Z,83.80
2017-08-02T01:02:31.312Z,84.60
2017-08-02T01:04:57.651Z,83.50
2017-08-02T01:07:23.984Z,84.10
2017-08-02T01:09:50.320Z,83.10
2017-08-02T01:12:16.660Z,85.50
2017-08-02T01:14:42.984Z,85.60
2017-08-02T01:17:09.327Z,84.90
2017-08-02T01:19:35.658Z,83.70
2017-08-02T01:22:01.960Z,85.00
2017-08-02T01:24:28.293Z,84.60
2017-08-02T01:26:54.773Z,84.80
2017-08-02T01:29:21.123Z,84.40
2017-08-02T01:31:47.439Z,83.70
2017-08-02T01:34:13.780Z,82.70
2017-08-02T01:36:40.147Z,81.80
2017-08-02T01:39:06.473Z,81.10
2017-08-02T01:41:32.816Z,80.60
2017-08-02T01:43:59.134Z,79.40
2017-08-02T01:46:25.472Z,79.70
2017-08-02T01:48:51.803Z,79.70
2017-08-02T01:51:18.153Z,79.70
2017-08-02T01:53:45.285Z,76.50
2017-08-02T01:56:11.608Z,76.40
2017-08-02T01:58:37.947Z,77.90
2017-08-02T02:01:05.087Z,77.10
2017-08-02T02:03:32.848Z,77.00
2017-08-02T02:06:01.035Z,77.60
2017-08-02T02:08:28.303Z,77.40
2017-08-02T02:10:54.604Z,77.60
2017-08-02T02:13:20.920Z,76.60
2017-08-02T02:15:47.297Z,77.20
2017-08-02T02:18:13.664Z,79.00
2017-08-02T02:20:39.991Z,79.20
2017-08-02T02:23:06.284Z,79.10
2017-08-02T02:25:32.588Z,79.00
2017-08-02T02:27:58.936Z,78.40
2017-08-02T02:30:25.256Z,79.00
2017-08-02T02:32:51.544Z,78.60
2017-08-02T02:35:17.889Z,79.10
2017-08-02T02:37:44.235Z,79.90
2017-08-02T02:40:10.527Z,79.70
2017-08-02T02:42:36.832Z,79.90
2017-08-02T02:45:03.927Z,80.90
2017-08-02T02:47:30.214Z,80.90
2017-08-02T02:49:56.516Z,80.40
2017-08-02T02:52:22.835Z,81.30
2017-08-02T02:54:49.420Z,81.70
2017-08-02T02:57:15.729Z,82.00
2017-08-02T02:59:42.036Z,81.80
2017-08-02T03:02:08.384Z,81.90
2017-08-02T03:04:34.676Z,82.10
2017-08-02T03:07:01.006Z,82.20
2017-08-02T03:09:28.312Z,82.60
2017-08-02T03:11:55.360Z,83.00
2017-08-02T03:14:22.395Z,82.40
2017-08-02T03:16:49.463Z,83.20
2017-08-02T03:19:15.767Z,82.60
2017-08-02T03:21:42.055Z,82.40
2017-08-02T03:24:08.384Z,82.50
2017-08-02T03:26:34.678Z,82.30
2017-08-02T03:29:01.717Z,82.60
2017-08-02T03:31:28.120Z,82.60
2017-08-02T03:33:54.436Z,82.60
2017-08-02T03:36:20.835Z,82.00
2017-08-02T03:38:47.190Z,82.00
2017-08-02T03:41:13.483Z,81.90
2017-08-02T03:43:39.852Z,81.30
2017-08-02T03:46:06.161Z,79.60
2017-08-02T03:48:32.475Z,80.10
2017-08-02T03:50:58.800Z,79.70
2017-08-02T03:53:25.103Z,80.10
2017-08-02T03:55:51.423Z,80.10
2017-08-02T03:58:17.749Z,79.90
2017-08-02T04:00:44.067Z,81.30
2017-08-02T04:03:10.385Z,81.80
2017-08-02T04:05:36.699Z,81.90
2017-08-02T04:08:03.043Z,81.90
2017-08-02T04:10:29.347Z,81.30
2017-08-02T04:12:55.667Z,81.40
2017-08-02T04:15:21.966Z,81.20
2017-08-02T04:17:49.115Z,81.40
2017-08-02T04:20:15.412Z,81.40
2017-08-02T04:22:41.727Z,81.60
2017-08-02T04:25:08.042Z,81.70
2017-08-02T04:27:34.340Z,82.10
2017-08-02T04:30:01.368Z,83.20
2017-08-02T04:32:27.679Z,82.60
2017-08-02T04:34:53.970Z,82.30
2017-08-02T04:37:20.336Z,82.00
2017-08-02T04:39:46.627Z,82.30
2017-08-02T04:42:12.927Z,81.00
2017-08-02T04:44:40.007Z,80.70
2017-08-02T04:47:06.324Z,80.70
2017-08-02T04:49:32.639Z,80.30
2017-08-02T04:51:59.013Z,80.70
2017-08-02T04:54:25.395Z,79.50
2017-08-02T04:56:51.683Z,79.30
2017-08-02T04:59:17.971Z,80.00
2017-08-02T05:01:45.028Z,79.70
2017-08-02T05:04:11.379Z,79.70
2017-08-02T05:06:37.705Z,78.50
2017-08-02T05:09:04.045Z,78.60
2017-08-02T05:11:30.340Z,77.80
2017-08-02T05:13:57.395Z,76.40
2017-08-02T05:16:23.739Z,76.40
2017-08-02T05:18:50.084Z,76.20
2017-08-02T05:21:16.391Z,74.90
2017-08-02T05:23:42.757Z,75.20
2017-08-02T05:26:09.076Z,76.20
2017-08-02T05:28:35.411Z,76.90
2017-08-02T05:31:01.746Z,76.60
2017-08-02T05:33:28.060Z,76.80
2017-08-02T05:35:54.343Z,75.90
2017-08-02T05:38:21.411Z,75.60
2017-08-02T05:40:47.740Z,75.60
2017-08-02T05:43:14.051Z,75.30
2017-08-02T05:45:40.371Z,74.90
2017-08-02T05:48:06.784Z,74.90
2017-08-02T05:50:33.104Z,73.60
2017-08-02T05:52:59.417Z,74.70
2017-08-02T05:55:25.768Z,75.10
2017-08-02T05:57:52.102Z,75.30
2017-08-02T06:00:18.416Z,75.60
2017-08-02T06:02:44.752Z,76.20
2017-08-02T06:05:11.135Z,76.10
2017-08-02T06:07:38.180Z,74.90
2017-08-02T06:10:05.213Z,73.60
2017-08-02T06:12:32.282Z,74.60
2017-08-02T06:14:58.607Z,74.50
2017-08-02T06:17:24.931Z,74.70
2017-08-02T06:19:52.010Z,72.40
2017-08-02T06:22:18.399Z,72.20
2017-08-02T06:24:44.804Z,72.60
2017-08-02T06:27:11.225Z,72.60
2017-08-02T06:29:37.531Z,72.20
2017-08-02T06:32:03.843Z,71.80
2017-08-02T06:34:30.149Z,71.50
2017-08-02T06:36:57.211Z,71.50
2017-08-02T06:39:23.552Z,71.50
2017-08-02T06:41:49.857Z,71.70
2017-08-02T06:44:17.230Z,69.70
2017-08-02T06:46:43.552Z,69.60
2017-08-02T06:49:09.952Z,70.10
2017-08-02T06:51:36.264Z,71.10
2017-08-02T06:54:02.575Z,69.40
2017-08-02T06:56:28.863Z,69.70
2017-08-02T06:58:55.911Z,67.40
2017-08-02T07:01:22.983Z,66.60
2017-08-02T07:03:49.347Z,66.60
2017-08-02T07:06:15.647Z,65.60
2017-08-02T07:08:41.971Z,66.20
2017-08-02T07:11:08.319Z,64.10
2017-08-02T07:13:34.643Z,63.80
2017-08-02T07:16:00.983Z,64.60
2017-08-02T07:18:27.299Z,63.30
2017-08-02T07:20:53.631Z,63.40
2017-08-02T07:23:19.953Z,62.80
2017-08-02T07:25:46.259Z,62.90
2017-08-02T07:28:13.292Z,60.30
2017-08-02T07:30:40.392Z,58.90
2017-08-02T07:33:06.702Z,58.80
2017-08-02T07:35:33.003Z,59.80
2017-08-02T07:37:59.316Z,60.50
2017-08-02T07:40:25.619Z,59.00
2017-08-02T07:42:51.954Z,58.60
2017-08-02T07:45:18.258Z,56.60
2017-08-02T07:47:44.547Z,56.60
2017-08-02T07:50:10.879Z,56.50
2017-08-02T07:52:37.932Z,56.40
2017-08-02T07:55:05.027Z,57.20
2017-08-02T07:57:31.372Z,57.20
2017-08-02T07:59:57.666Z,57.50
2017-08-02T08:02:23.975Z,57.20
2017-08-02T08:04:51.064Z,55.30
2017-08-02T08:07:17.364Z,55.20
2017-08-02T08:09:43.708Z,54.30
2017-08-02T08:12:10.027Z,53.90
2017-08-02T08:14:36.332Z,53.10
2017-08-02T08:17:03.401Z,52.70
2017-08-02T08:19:29.680Z,52.60
2017-08-02T08:21:55.999Z,53.20
2017-08-02T08:24:22.328Z,52.90
2017-08-02T08:26:48.715Z,52.60
2017-08-02T08:29:15.068Z,52.00
2017-08-02T08:31:41.396Z,50.70
2017-08-02T08:34:07.735Z,49.90
2017-08-02T08:36:34.056Z,49.50
2017-08-02T08:39:00.372Z,49.40
2017-08-02T08:41:26.679Z,48.70
2017-08-02T08:43:53.847Z,48.30
2017-08-02T08:46:20.886Z,47.60
2017-08-02T08:48:47.207Z,47.50
2017-08-02T08:51:13.560Z,47.80
2017-08-02T08:53:39.861Z,47.80
2017-08-02T08:56:06.932Z,46.60
2017-08-02T08:58:33.278Z,46.60
2017-08-02T09:00:59.621Z,46.80
2017-08-02T09:03:25.927Z,46.70
2017-08-02T09:05:52.239Z,46.50
2017-08-02T09:08:18.559Z,46.10
2017-08-02T09:10:45.615Z,45.60
2017-08-02T09:13:12.675Z,44.90
2017-08-02T09:15:39.002Z,44.90
2017-08-02T09:18:06.099Z,43.70
2017-08-02T09:20:32.404Z,43.50
2017-08-02T09:22:58.688Z,43.20
2017-08-02T09:25:25.775Z,42.70
2017-08-02T09:27:52.191Z,42.60
2017-08-02T09:30:18.503Z,42.30
2017-08-02T09:32:44.840Z,42.00
2017-08-02T09:35:11.879Z,42.90
2017-08-02T09:37:38.953Z,42.10
2017-08-02T09:40:05.303Z,42.10
2017-08-02T09:42:32.148Z,41.40
2017-08-02T09:44:58.483Z,41.20
2017-08-02T09:47:24.820Z,41.30
2017-08-02T09:49:51.138Z,41.00
2017-08-02T09:52:17.654Z,42.60
2017-08-02T09:54:44.064Z,43.70
2017-08-02T09:57:11.103Z,40.40
2017-08-02T09:59:38.149Z,41.40
2017-08-02T10:02:05.233Z,39.50
2017-08-02T10:04:31.573Z,39.40
2017-08-02T10:06:57.889Z,39.40
2017-08-02T10:09:24.211Z,39.10
2017-08-02T10:11:50.516Z,39.40
2017-08-02T10:14:17.592Z,38.60
2017-08-02T10:16:43.943Z,38.60
2017-08-02T10:19:10.240Z,38.50
2017-08-02T10:21:36.560Z,38.30
2017-08-02T10:24:02.997Z,38.90
2017-08-02T10:26:29.303Z,39.60
2017-08-02T10:28:55.607Z,41.60
2017-08-02T10:31:21.952Z,41.40
2017-08-02T10:33:48.294Z,41.00
2017-08-02T10:36:15.351Z,39.00
2017-08-02T10:38:41.689Z,38.90
2017-08-02T10:41:08.734Z,38.70
2017-08-02T10:43:35.066Z,38.60
2017-08-02T10:46:02.112Z,38.20
2017-08-02T10:48:28.476Z,38.10
2017-08-02T10:50:54.786Z,38.60
2017-08-02T10:53:21.075Z,38.20
2017-08-02T10:55:48.167Z,38.60
2017-08-02T10:58:14.478Z,38.50
2017-08-02T11:00:41.523Z,37.50
2017-08-02T11:03:07.878Z,37.40
2017-08-02T11:05:34.224Z,36.60
2017-08-02T11:08:00.535Z,36.90
2017-08-02T11:10:26.879Z,36.70
2017-08-02T11:12:53.191Z,37.90
2017-08-02T11:15:19.532Z,38.20
2017-08-02T11:17:45.887Z,38.40
2017-08-02T11:20:12.232Z,38.60
2017-08-02T11:22:38.627Z,37.30
2017-08-02T11:25:04.977Z,36.80
2017-08-02T11:27:31.303Z,38.90
2017-08-02T11:29:57.603Z,40.20
2017-08-02T11:32:23.907Z,38.40
2017-08-02T11:34:50.983Z,40.50
2017-08-02T11:37:17.343Z,40.30
2017-08-02T11:39:43.658Z,38.40
2017-08-02T11:42:10.015Z,38.40
2017-08-02T11:44:36.307Z,39.40
2017-08-02T11:47:02.656Z,39.30
2017-08-02T11:49:29.015Z,38.80
2017-08-02T11:51:55.311Z,38.90
2017-08-02T11:54:21.631Z,39.30
2017-08-02T11:56:47.951Z,39.40
2017-08-02T11:59:14.339Z,40.50
2017-08-02T12:01:40.702Z,40.50
2017-08-02T12:04:07.020Z,40.20
2017-08-02T12:06:34.086Z,39.70
2017-08-02T12:09:00.466Z,39.70
2017-08-02T12:11:26.755Z,40.80
2017-08-02T12:13:53.085Z,40.70
2017-08-02T12:16:19.399Z,40.40
2017-08-02T12:18:45.729Z,39.90
2017-08-02T12:21:12.194Z,40.40
2017-08-02T12:23:38.600Z,41.00
2017-08-02T12:26:05.000Z,40.40
2017-08-02T12:28:31.488Z,39.30
2017-08-02T12:30:58.705Z,40.20
2017-08-02T12:33:25.133Z,40.20
2017-08-02T12:35:51.611Z,40.80
2017-08-02T12:38:18.116Z,41.00
2017-08-02T12:40:44.508Z,40.20
2017-08-02T12:43:11.038Z,39.70
2017-08-02T12:45:38.173Z,40.10
2017-08-02T12:48:04.582Z,40.00
2017-08-02T12:50:30.998Z,42.60
2017-08-02T12:52:57.459Z,40.80
2017-08-02T12:55:23.889Z,40.40
2017-08-02T12:57:50.317Z,41.30
2017-08-02T13:00:16.840Z,39.20
2017-08-02T13:02:43.168Z,40.30
2017-08-02T13:05:09.468Z,40.90
2017-08-02T13:07:36.555Z,40.50
2017-08-02T13:10:02.867Z,40.50
2017-08-02T13:12:29.159Z,40.00
2017-08-02T13:14:56.236Z,40.90
2017-08-02T13:17:22.584Z,40.50
2017-08-02T13:19:48.909Z,42.10
2017-08-02T13:22:15.219Z,42.50
2017-08-02T13:24:42.427Z,40.00
2017-08-02T13:27:08.716Z,40.00
2017-08-02T13:29:35.014Z,41.50
2017-08-02T13:32:01.358Z,41.50
2017-08-02T13:34:27.652Z,41.70
2017-08-02T13:36:53.953Z,41.60
2017-08-02T13:39:20.600Z,41.20
2017-08-02T13:41:46.899Z,40.90
2017-08-02T13:44:13.204Z,43.00
2017-08-02T13:46:40.257Z,41.80
2017-08-02T13:49:06.572Z,41.70
2017-08-02T13:51:33.647Z,41.70
2017-08-02T13:53:59.987Z,41.60
2017-08-02T13:56:26.284Z,40.80
2017-08-02T13:58:53.322Z,41.10
2017-08-02T14:01:19.654Z,41.00
2017-08-02T14:03:46.700Z,42.00
2017-08-02T14:06:13.085Z,41.90
2017-08-02T14:08:39.392Z,42.00
2017-08-02T14:11:05.688Z,42.40
2017-08-02T14:13:32.011Z,41.00
2017-08-02T14:15:58.335Z,41.50
2017-08-02T14:18:24.625Z,41.50
2017-08-02T14:20:50.944Z,41.90
2017-08-02T14:23:17.295Z,41.10
2017-08-02T14:25:43.619Z,41.10
2017-08-02T14:28:09.975Z,42.30
2017-08-02T14:30:36.296Z,40.90
2017-08-02T14:33:02.628Z,40.70
2017-08-02T14:35:28.967Z,42.90
2017-08-02T14:37:55.259Z,42.20
2017-08-02T14:40:21.562Z,41.80
2017-08-02T14:42:48.638Z,41.80
2017-08-02T14:45:14.939Z,41.80
2017-08-02T14:47:41.975Z,41.60
2017-08-02T14:50:08.375Z,41.60
2017-08-02T14:52:34.675Z,40.60
2017-08-02T14:55:00.987Z,40.50
2017-08-02T14:57:27.303Z,40.60
2017-08-02T14:59:54.375Z,40.00
2017-08-02T15:02:20.685Z,39.90
2017-08-02T15:04:47.031Z,41.50
2017-08-02T15:07:13.375Z,40.60
2017-08-02T15:09:39.681Z,40.50
2017-08-02T15:12:05.995Z,39.60
2017-08-02T15:14:33.060Z,40.40
2017-08-02T15:16:59.371Z,40.30
2017-08-02T15:19:26.453Z,40.90
2017-08-02T15:21:52.793Z,40.20
2017-08-02T15:24:19.134Z,41.00
2017-08-02T15:26:45.472Z,40.90
2017-08-02T15:29:11.771Z,41.30
2017-08-02T15:31:38.069Z,41.70
2017-08-02T15:34:05.127Z,41.80
2017-08-02T15:36:31.473Z,42.40
2017-08-02T15:38:57.825Z,41.30
2017-08-02T15:41:24.159Z,41.00
2017-08-02T15:43:50.524Z,40.70
2017-08-02T15:46:17.563Z,41.50
2017-08-02T15:48:43.932Z,41.50
2017-08-02T15:51:10.242Z,41.20
2017-08-02T15:53:37.322Z,40.90
2017-08-02T15:56:03.656Z,40.80
2017-08-02T15:58:29.958Z,41.10
2017-08-02T16:00:56.280Z,40.80
2017-08-02T16:03:22.643Z,41.10
2017-08-02T16:05:48.952Z,41.30
2017-08-02T16:08:15.267Z,41.60
2017-08-02T16:10:42.338Z,41.30
2017-08-02T16:13:08.640Z,41.20
2017-08-02T16:15:35.023Z,42.20
2017-08-02T16:18:01.327Z,42.20
2017-08-02T16:20:27.616Z,41.40
2017-08-02T16:22:53.947Z,41.80
2017-08-02T16:25:20.256Z,41.60
2017-08-02T16:27:46.597Z,42.10
2017-08-02T16:30:12.930Z,41.80
2017-08-02T16:32:39.236Z,42.40
2017-08-02T16:35:05.555Z,43.20
2017-08-02T16:37:31.884Z,42.60
2017-08-02T16:39:58.232Z,42.00
2017-08-02T16:42:24.569Z,41.60
2017-08-02T16:44:50.903Z,41.50
2017-08-02T16:47:17.218Z,42.10
2017-08-02T16:49:43.707Z,42.20
2017-08-02T16:52:10.013Z,42.50
2017-08-02T16:54:37.064Z,43.10
2017-08-02T16:57:04.161Z,42.90
2017-08-02T16:59:30.467Z,42.90
2017-08-02T17:01:56.785Z,42.30
2017-08-02T17:04:23.899Z,42.80
2017-08-02T17:06:50.219Z,42.80
2017-08-02T17:09:16.572Z,42.80
2017-08-02T17:11:43.684Z,43.20
2017-08-02T17:14:09.989Z,43.10
2017-08-02T17:16:36.289Z,43.70
2017-08-02T17:19:03.376Z,43.70
2017-08-02T17:21:29.687Z,43.70
2017-08-02T17:23:56.028Z,43.50
2017-08-02T17:26:22.355Z,44.00
2017-08-02T17:28:48.655Z,43.50
2017-08-02T17:31:14.979Z,43.90
2017-08-02T17:33:42.052Z,45.60
2017-08-02T17:36:08.399Z,44.80
2017-08-02T17:38:34.716Z,44.70
2017-08-02T17:41:01.063Z,44.50
2017-08-02T17:43:27.456Z,44.30
2017-08-02T17:45:54.585Z,44.70
2017-08-02T17:48:20.910Z,44.70
2017-08-02T17:50:47.252Z,44.20
2017-08-02T17:53:13.592Z,44.70
2017-08-02T17:55:39.901Z,44.40
2017-08-02T17:58:06.275Z,45.00
2017-08-02T18:00:32.629Z,45.40
2017-08-02T18:02:58.964Z,44.90
2017-08-02T18:05:25.319Z,45.00
2017-08-02T18:07:51.664Z,45.00
2017-08-02T18:10:18.799Z,45.70
2017-08-02T18:12:45.115Z,45.70
2017-08-02T18:15:11.458Z,46.70
2017-08-02T18:17:37.769Z,47.30
2017-08-02T18:20:04.127Z,48.00
2017-08-02T18:22:31.193Z,49.30
2017-08-02T18:24:57.573Z,49.00
2017-08-02T18:27:23.891Z,49.90
2017-08-02T18:29:50.219Z,50.30
2017-08-02T18:32:16.549Z,50.60
2017-08-02T18:34:42.896Z,51.10
2017-08-02T18:37:09.246Z,51.80
2017-08-02T18:39:35.714Z,52.10
2017-08-02T18:42:02.032Z,53.20
2017-08-02T18:44:29.180Z,54.70
2017-08-02T18:46:56.253Z,54.40
2017-08-02T18:49:22.595Z,54.40
2017-08-02T18:51:48.936Z,54.60
2017-08-02T18:54:15.235Z,54.80
2017-08-02T18:56:41.584Z,54.40
2017-08-02T18:59:07.917Z,55.20
2017-08-02T19:01:34.294Z,56.20
2017-08-02T19:04:00.729Z,56.60
2017-08-02T19:06:27.159Z,56.40
2017-08-02T19:08:54.287Z,56.50
2017-08-02T19:11:20.878Z,56.40
2017-08-02T19:13:47.261Z,56.70
2017-08-02T19:16:13.618Z,56.70
2017-08-02T19:18:41.558Z,56.90
2017-08-02T19:21:07.884Z,56.80
2017-08-02T19:23:34.267Z,57.80
2017-08-02T19:26:00.785Z,58.30
2017-08-02T19:28:27.183Z,58.50
2017-08-02T19:30:53.714Z,58.60
2017-08-02T19:33:20.282Z,59.00
2017-08-02T19:35:46.768Z,58.60
2017-08-02T19:38:13.660Z,58.20
2017-08-02T19:40:40.133Z,57.70
2017-08-02T19:43:06.637Z,58.30
2017-08-02T19:45:33.184Z,58.30
2017-08-02T19:47:59.644Z,58.90
2017-08-02T19:50:26.201Z,59.40
2017-08-02T19:52:52.664Z,60.40
2017-08-02T19:55:19.169Z,60.60
2017-08-02T19:57:45.547Z,60.50
2017-08-02T20:00:12.682Z,60.30
2017-08-02T20:02:39.243Z,59.70
2017-08-02T20:05:05.774Z,60.50
2017-08-02T20:07:33.151Z,60.40
2017-08-02T20:09:59.468Z,60.60
2017-08-02T20:12:25.907Z,60.90
2017-08-02T20:14:52.261Z,62.00
2017-08-02T20:17:18.575Z,62.20
2017-08-02T20:19:45.072Z,61.80
2017-08-02T20:22:11.597Z,61.50
2017-08-02T20:24:38.032Z,60.80
2017-08-02T20:27:04.406Z,61.40
2017-08-02T20:29:30.758Z,61.70
2017-08-02T20:31:57.155Z,62.00
2017-08-02T20:34:23.492Z,60.80
2017-08-02T20:36:49.806Z,60.20
2017-08-02T20:39:16.157Z,59.40
2017-08-02T20:41:42.471Z,59.50
2017-08-02T20:44:08.791Z,59.50
2017-08-02T20:46:35.143Z,59.40
2017-08-02T20:49:01.450Z,60.10
2017-08-02T20:51:27.793Z,59.70
2017-08-02T20:53:54.132Z,60.00
2017-08-02T20:56:20.453Z,60.10
2017-08-02T20:58:46.769Z,60.30
2017-08-02T21:01:13.101Z,60.30
2017-08-02T21:03:39.423Z,60.60
2017-08-02T21:06:06.173Z,60.90
2017-08-02T21:08:32.468Z,61.30
2017-08-02T21:10:58.822Z,61.40
2017-08-02T21:13:25.127Z,61.90
2017-08-02T21:15:51.477Z,62.20
2017-08-02T21:18:17.775Z,62.20
2017-08-02T21:20:44.095Z,62.40
2017-08-02T21:23:10.420Z,62.50
2017-08-02T21:25:36.731Z,62.50
2017-08-02T21:28:03.040Z,62.20
2017-08-02T21:30:29.403Z,61.70
2017-08-02T21:32:55.695Z,61.80
2017-08-02T21:35:22.047Z,62.00
2017-08-02T21:37:48.353Z,62.70
2017-08-02T21:40:14.724Z,62.80
2017-08-02T21:42:41.035Z,62.80
2017-08-02T21:45:07.367Z,63.50
2017-08-02T21:47:33.672Z,63.60
2017-08-02T21:49:59.971Z,63.90
2017-08-02T21:52:26.292Z,64.30
2017-08-02T21:54:52.589Z,64.70
2017-08-02T21:57:18.888Z,64.70
2017-08-02T21:59:45.259Z,64.70
2017-08-02T22:02:11.571Z,64.80
2017-08-02T22:04:37.904Z,64.40
2017-08-02T22:07:04.231Z,64.20
2017-08-02T22:09:30.731Z,63.90
2017-08-02T22:11:57.788Z,63.50
2017-08-02T22:14:24.099Z,63.40
2017-08-02T22:16:51.163Z,63.70
2017-08-02T22:19:17.474Z,63.60
2017-08-02T22:21:43.849Z,64.10
2017-08-02T22:24:10.155Z,64.00
2017-08-02T22:26:36.475Z,64.30
2017-08-02T22:29:03.587Z,64.50
2017-08-02T22:31:29.893Z,64.40
2017-08-02T22:33:56.215Z,64.60
2017-08-02T22:36:22.532Z,64.80
2017-08-02T22:38:48.914Z,65.00
2017-08-02T22:41:15.267Z,64.90
2017-08-02T22:43:42.340Z,64.90
2017-08-02T22:46:08.704Z,64.90
2017-08-02T22:48:35.012Z,64.60
2017-08-02T22:51:01.339Z,64.50
2017-08-02T22:53:27.648Z,64.80
2017-08-02T22:55:53.980Z,65.20
2017-08-02T22:58:20.320Z,65.30
2017-08-02T23:00:46.611Z,65.20
2017-08-02T23:03:13.696Z,65.20
2017-08-02T23:05:40.044Z,65.20
2017-08-02T23:08:06.414Z,65.00
2017-08-02T23:10:33.532Z,65.30
2017-08-02T23:12:59.836Z,65.30
2017-08-02T23:15:26.355Z,65.80
2017-08-02T23:17:52.716Z,65.80
2017-08-02T23:20:19.025Z,65.30
2017-08-02T23:22:45.343Z,65.40
2017-08-02T23:25:12.395Z,66.50
2017-08-02T23:27:38.753Z,66.40
2017-08-02T23:30:05.056Z,66.80
2017-08-02T23:32:31.403Z,66.50
2017-08-02T23:34:57.708Z,66.70
2017-08-02T23:37:24.088Z,66.50
2017-08-02T23:39:50.450Z,66.80
2017-08-02T23:42:16.756Z,66.60
2017-08-02T23:44:43.075Z,66.50
2017-08-02T23:47:09.398Z,66.50
2017-08-02T23:49:35.729Z,66.90
2017-08-02T23:52:02.076Z,66.90
2017-08-02T23:54:28.378Z,67.00
2017-08-02T23:56:54.679Z,66.80
2017-08-02T23:59:21.746Z,67.60
